Time;durP1;ratioP1;P1;durP2;ratioP2;P2;SDS_P1;SDS_P2;PMS_P1;PMS_P2;Temp;Humidity;BMP_temperature;BMP_pressure;BME280_temperature;BME280_humidity;BME280_pressure;Samples;Min_cycle;Max_cycle;Signal;HPM_P1;HPM_P2
2024/03/20 00:01:30;;;;;;;46.25;25.90;;;;;;;3.18;100.00;101527.66;5061134;28;20076;-73
2024/03/20 00:03:56;;;;;;;45.38;25.05;;;;;;;3.34;100.00;101537.78;5060711;28;20025;-73
2024/03/20 00:06:21;;;;;;;42.35;25.77;;;;;;;3.34;100.00;101537.78;5060450;28;20135;-72
2024/03/20 00:08:47;;;;;;;44.50;26.00;;;;;;;3.36;100.00;101545.66;5061069;28;20032;-73
2024/03/20 00:11:12;;;;;;;45.38;25.88;;;;;;;3.36;100.00;101549.13;5061489;28;20024;-73
2024/03/20 00:13:38;;;;;;;44.05;25.83;;;;;;;3.37;100.00;101536.69;5060754;28;20036;-73
2024/03/20 00:16:03;;;;;;;41.38;26.35;;;;;;;3.38;100.00;101549.88;5061236;28;20037;-73
2024/03/20 00:18:30;;;;;;;45.47;26.98;;;;;;;3.39;100.00;101550.69;5060746;28;20027;-72
2024/03/20 00:20:55;;;;;;;45.42;26.00;;;;;;;3.39;100.00;101535.56;5060332;28;20060;-73
2024/03/20 00:23:22;;;;;;;44.97;26.90;;;;;;;3.44;100.00;101540.47;5060160;28;20029;-72
2024/03/20 00:25:48;;;;;;;48.75;26.58;;;;;;;3.45;100.00;101537.69;5059801;28;20028;-73
2024/03/20 00:28:13;;;;;;;53.00;28.10;;;;;;;3.47;100.00;101546.38;5060694;28;20511;-72
2024/03/20 00:30:39;;;;;;;50.28;27.50;;;;;;;3.50;100.00;101538.13;5060840;28;20028;-72
2024/03/20 00:33:04;;;;;;;44.95;27.55;;;;;;;3.50;100.00;101548.75;5060387;28;20033;-73
2024/03/20 00:35:33;;;;;;;51.40;26.17;;;;;;;3.51;100.00;101541.66;5060412;28;20025;-73
2024/03/20 00:37:59;;;;;;;51.22;27.17;;;;;;;3.48;100.00;101532.13;5060738;28;20080;-73
2024/03/20 00:40:24;;;;;;;47.35;27.35;;;;;;;3.49;100.00;101532.94;5060846;28;20048;-72
2024/03/20 00:42:50;;;;;;;51.53;28.42;;;;;;;3.51;100.00;101531.84;5060633;28;20028;-73
2024/03/20 00:45:15;;;;;;;47.53;26.80;;;;;;;3.53;100.00;101534.34;5060766;28;20097;-73
2024/03/20 00:47:41;;;;;;;50.53;27.92;;;;;;;3.52;100.00;101540.66;5058999;28;20040;-74
2024/03/20 00:50:07;;;;;;;52.45;26.98;;;;;;;3.54;100.00;101530.72;5058882;28;20060;-73
2024/03/20 00:52:32;;;;;;;54.88;26.48;;;;;;;3.53;100.00;101523.72;5059811;28;20112;-73
2024/03/20 00:54:58;;;;;;;47.15;26.48;;;;;;;3.53;100.00;101531.69;5058134;28;20595;-73
2024/03/20 00:57:24;;;;;;;49.60;27.70;;;;;;;3.55;100.00;101528.91;5059050;28;20029;-73
2024/03/20 00:59:50;;;;;;;48.40;26.00;;;;;;;3.53;100.00;101527.22;5058249;28;20500;-73
2024/03/20 01:02:16;;;;;;;44.50;25.90;;;;;;;3.57;100.00;101526.94;5059895;28;20043;-73
2024/03/20 01:04:41;;;;;;;46.80;26.98;;;;;;;3.55;100.00;101523.59;5059905;28;20488;-73
2024/03/20 01:07:08;;;;;;;48.78;25.35;;;;;;;3.57;100.00;101525.13;5059795;28;20056;-73
2024/03/20 01:09:33;;;;;;;50.53;25.77;;;;;;;3.50;100.00;101513.34;5059323;28;20033;-73
2024/03/20 01:11:59;;;;;;;45.60;25.38;;;;;;;3.52;100.00;101508.72;5059952;28;20021;-73
2024/03/20 01:14:25;;;;;;;40.38;25.35;;;;;;;3.56;100.00;101515.47;5058816;28;20031;-73
2024/03/20 01:16:51;;;;;;;51.20;26.35;;;;;;;3.57;100.00;101517.13;5059870;28;20041;-73
2024/03/20 01:19:16;;;;;;;47.38;26.02;;;;;;;3.58;100.00;101505.53;5059943;28;20032;-73
2024/03/20 01:21:41;;;;;;;42.47;24.10;;;;;;;3.57;100.00;101505.66;5059491;28;20146;-73
2024/03/20 01:24:08;;;;;;;48.83;26.23;;;;;;;3.59;100.00;101504.53;5059940;28;20012;-73
2024/03/20 01:26:34;;;;;;;42.60;24.67;;;;;;;3.60;100.00;101505.38;5058391;28;20460;-72
2024/03/20 01:28:59;;;;;;;47.25;24.98;;;;;;;3.60;100.00;101506.22;5059526;28;20057;-73
2024/03/20 01:31:24;;;;;;;40.67;23.58;;;;;;;3.62;100.00;101504.28;5059306;28;20033;-73
2024/03/20 01:33:50;;;;;;;45.38;25.10;;;;;;;3.64;100.00;101509.44;5058497;28;20500;-73
2024/03/20 01:36:15;;;;;;;46.13;25.48;;;;;;;3.62;100.00;101509.59;5059344;28;20029;-73
2024/03/20 01:38:40;;;;;;;45.95;25.38;;;;;;;3.62;100.00;101498.13;5057499;28;20540;-73
2024/03/20 01:41:06;;;;;;;48.47;24.60;;;;;;;3.64;100.00;101497.00;5058024;28;20025;-73
2024/03/20 01:43:31;;;;;;;48.05;24.42;;;;;;;3.64;100.00;101504.13;5058119;28;20477;-73
2024/03/20 01:45:57;;;;;;;42.30;23.63;;;;;;;3.55;100.00;101489.00;5059110;28;20033;-73
2024/03/20 01:48:22;;;;;;;39.08;23.48;;;;;;;3.65;100.00;101500.50;5058758;28;20066;-73
2024/03/20 01:50:48;;;;;;;44.20;24.30;;;;;;;3.47;100.00;101479.84;5057405;28;20021;-73
2024/03/20 01:53:15;;;;;;;45.55;23.20;;;;;;;3.67;100.00;101501.19;5057077;28;20037;-72
2024/03/20 01:55:41;;;;;;;44.13;23.17;;;;;;;3.68;100.00;101501.06;5056564;28;20543;-72
2024/03/20 01:58:06;;;;;;;42.10;24.08;;;;;;;3.68;100.00;101501.06;5058198;28;20033;-73
2024/03/20 02:00:32;;;;;;;40.17;22.83;;;;;;;3.64;100.00;101497.00;5058742;28;20507;-73
2024/03/20 02:03:02;;;;;;;36.92;22.17;;;;;;;3.71;100.00;101497.31;5059680;28;20098;-73
2024/03/20 02:05:28;;;;;;;44.92;24.08;;;;;;;3.73;100.00;101495.31;5058961;28;20076;-72
2024/03/20 02:07:54;;;;;;;42.58;23.65;;;;;;;3.74;100.00;101489.88;5058740;28;20024;-73
2024/03/20 02:10:20;;;;;;;47.05;23.60;;;;;;;3.76;100.00;101487.91;5059152;28;20411;-73
2024/03/20 02:12:47;;;;;;;41.42;22.67;;;;;;;3.65;100.00;101464.09;5058608;28;20029;-73
2024/03/20 02:15:12;;;;;;;45.00;24.08;;;;;;;3.79;100.00;101483.28;5060228;28;20158;-73
2024/03/20 02:17:39;;;;;;;44.35;23.90;;;;;;;3.80;100.00;101490.28;5057514;28;20088;-73
2024/03/20 02:20:06;;;;;;;43.53;24.17;;;;;;;3.82;100.00;101483.03;5058469;28;20439;-73
2024/03/20 02:22:49;;;;;;;46.22;24.40;;;;;;;3.84;100.00;101484.56;5058127;28;20029;-73
2024/03/20 02:25:14;;;;;;;42.13;24.00;;;;;;;3.85;100.00;101480.09;5058580;28;20039;-73
2024/03/20 02:27:40;;;;;;;42.58;24.13;;;;;;;3.86;100.00;101489.75;5057862;28;20391;-73
2024/03/20 02:30:12;;;;;;;46.33;24.73;;;;;;;3.86;100.00;101487.09;5058264;28;20029;-73
2024/03/20 02:32:38;;;;;;;47.20;25.35;;;;;;;3.88;100.00;101488.63;5057478;28;20032;-74
2024/03/20 02:35:03;;;;;;;47.20;25.17;;;;;;;3.87;100.00;101481.59;5039848;28;20391;-73
2024/03/20 02:37:29;;;;;;;41.83;23.02;;;;;;;3.90;100.00;101481.31;5057240;28;20025;-73
2024/03/20 02:39:54;;;;;;;45.67;24.40;;;;;;;3.94;100.00;101484.56;5057954;28;20025;-72
2024/03/20 02:42:22;;;;;;;46.83;25.02;;;;;;;3.95;100.00;101481.78;5056586;28;20029;-73
2024/03/20 02:44:48;;;;;;;46.58;25.80;;;;;;;3.96;100.00;101485.25;5057790;28;20044;-73
2024/03/20 02:47:14;;;;;;;47.15;25.48;;;;;;;3.97;100.00;101485.13;5057712;28;20032;-73
2024/03/20 02:49:39;;;;;;;51.38;25.63;;;;;;;3.85;100.00;101454.28;5058199;28;20119;-73
2024/03/20 02:52:04;;;;;;;50.75;26.42;;;;;;;3.99;100.00;101480.50;5057939;28;20059;-73
2024/03/20 02:54:30;;;;;;;51.35;26.40;;;;;;;3.99;100.00;101480.50;5056575;28;20029;-73
2024/03/20 02:56:55;;;;;;;49.45;25.45;;;;;;;4.02;100.00;101483.88;5057793;28;20036;-73
2024/03/20 02:59:21;;;;;;;55.00;27.20;;;;;;;4.02;100.00;101482.06;5058080;28;20029;-73
2024/03/20 03:01:46;;;;;;;56.35;27.55;;;;;;;4.04;100.00;101480.09;5057999;28;20064;-75
2024/03/20 03:04:11;;;;;;;57.95;28.60;;;;;;;4.04;100.00;101477.44;5058059;28;20017;-73
2024/03/20 03:06:37;;;;;;;62.53;29.73;;;;;;;3.98;100.00;101462.00;5057752;28;20036;-73
2024/03/20 03:09:08;;;;;;;65.57;30.15;;;;;;;4.08;100.00;101478.84;5057164;28;20064;-73
2024/03/20 03:11:36;;;;;;;70.57;30.55;;;;;;;4.10;100.00;101478.69;5057449;28;20495;-73
2024/03/20 03:14:03;;;;;;;76.32;32.17;;;;;;;4.11;100.00;101472.38;5057960;28;20086;-73
2024/03/20 03:16:29;;;;;;;80.70;33.45;;;;;;;4.05;100.00;101457.81;5057496;28;20021;-73
2024/03/20 03:18:54;;;;;;;85.80;34.75;;;;;;;4.15;100.00;101474.63;5056967;28;20545;-73
2024/03/20 03:21:20;;;;;;;98.90;37.28;;;;;;;4.09;100.00;101461.03;5061355;28;20056;-73
2024/03/20 03:23:46;;;;;;;91.13;36.63;;;;;;;4.19;100.00;101475.19;5061618;28;20029;-73
2024/03/20 03:26:12;;;;;;;96.85;37.42;;;;;;;4.18;100.00;101465.50;5061802;28;20025;-73
2024/03/20 03:28:37;;;;;;;107.72;39.03;;;;;;;4.21;100.00;101476.72;5060820;28;20021;-73
2024/03/20 03:31:03;;;;;;;95.93;39.05;;;;;;;4.24;100.00;101478.28;5060175;28;20036;-74
2024/03/20 03:33:28;;;;;;;117.75;43.55;;;;;;;4.21;100.00;101470.56;5060765;28;20491;-73
2024/03/20 03:36:06;;;;;;;159.73;47.47;;;;;;;4.23;100.00;101466.75;5061563;28;20387;-74
2024/03/20 03:38:32;;;;;;;143.90;45.60;;;;;;;4.26;100.00;101476.28;5061147;28;20044;-73
2024/03/20 03:41:02;;;;;;;164.75;47.65;;;;;;;4.26;100.00;101465.63;5061425;28;20033;-73
2024/03/20 03:43:28;;;;;;;161.02;48.25;;;;;;;4.32;100.00;101477.56;5062071;28;20036;-74
2024/03/20 03:45:53;;;;;;;165.95;51.33;;;;;;;4.34;100.00;101475.56;5062536;28;20025;-73
2024/03/20 03:48:19;;;;;;;167.60;51.75;;;;;;;4.34;100.00;101468.44;5062193;28;20029;-73
2024/03/20 03:50:47;;;;;;;172.68;52.97;;;;;;;4.36;100.00;101465.63;5062160;28;20116;-78
2024/03/20 03:53:13;;;;;;;171.38;52.38;;;;;;;4.37;100.00;101462.84;5062241;28;20025;-74
2024/03/20 03:55:39;;;;;;;148.82;49.63;;;;;;;4.40;100.00;101467.00;5062248;28;20050;-73
2024/03/20 03:58:04;;;;;;;194.63;55.10;;;;;;;4.41;100.00;101466.06;5061422;28;20036;-74
2024/03/20 04:00:31;;;;;;;219.20;56.13;;;;;;;4.34;100.00;101451.59;5061863;28;20049;-74
2024/03/20 04:02:56;;;;;;;191.43;54.95;;;;;;;4.43;100.00;101466.72;5062359;28;20044;-74
2024/03/20 04:05:22;;;;;;;246.75;57.70;;;;;;;4.27;100.00;101447.81;5061767;28;20484;-74
2024/03/20 04:07:47;;;;;;;207.20;53.92;;;;;;;4.41;100.00;101464.22;5062133;28;20029;-74
2024/03/20 04:10:13;;;;;;;228.98;56.88;;;;;;;4.40;100.00;101467.88;5061993;28;20029;-74
2024/03/20 04:12:38;;;;;;;187.48;52.97;;;;;;;4.40;100.00;101467.88;5060261;28;20039;-74
2024/03/20 04:15:04;;;;;;;231.80;59.60;;;;;;;4.38;100.00;101469.00;5060406;28;20025;-74
2024/03/20 04:17:29;;;;;;;234.95;57.05;;;;;;;4.41;100.00;101474.03;5060385;28;20508;-74
2024/03/20 04:19:54;;;;;;;235.90;59.97;;;;;;;4.40;100.00;101480.34;5059698;28;20690;-74
2024/03/20 04:22:20;;;;;;;249.32;59.25;;;;;;;4.41;100.00;101474.03;5060199;28;20490;-75
2024/03/20 04:24:47;;;;;;;228.05;58.17;;;;;;;4.41;100.00;101474.88;5060520;28;20032;-74
2024/03/20 04:27:13;;;;;;;197.73;53.15;;;;;;;4.31;100.00;101459.91;5058984;28;20040;-74
2024/03/20 04:29:38;;;;;;;213.82;57.42;;;;;;;4.41;100.00;101482.88;5060823;28;20017;-74
2024/03/20 04:32:04;;;;;;;207.18;56.85;;;;;;;4.34;100.00;101465.78;5060422;28;20082;-74
2024/03/20 04:34:29;;;;;;;186.65;54.22;;;;;;;4.41;100.00;101482.88;5059036;28;20065;-75
2024/03/20 04:36:54;;;;;;;236.45;58.47;;;;;;;4.41;100.00;101484.69;5058864;28;20044;-74
2024/03/20 04:39:22;;;;;;;237.18;58.47;;;;;;;4.43;100.00;101482.72;5059635;28;20100;-74
2024/03/20 04:41:47;;;;;;;257.35;61.45;;;;;;;4.43;100.00;101480.88;5060949;28;20072;-74
2024/03/20 04:44:16;;;;;;;263.35;63.05;;;;;;;4.44;100.00;101479.94;5060137;28;20476;-74
2024/03/20 04:46:41;;;;;;;365.88;69.30;;;;;;;4.46;100.00;101482.44;5059362;28;20484;-74
2024/03/20 04:49:06;;;;;;;276.17;66.60;;;;;;;4.36;100.00;101469.13;5058489;28;20035;-74
2024/03/20 04:51:32;;;;;;;318.85;66.65;;;;;;;4.48;100.00;101480.47;5058192;28;20034;-74
2024/03/20 04:53:57;;;;;;;380.65;71.32;;;;;;;4.49;100.00;101490.16;5058547;28;20092;-73
2024/03/20 04:56:23;;;;;;;240.43;64.70;;;;;;;4.45;100.00;101473.59;5058895;28;20033;-76
2024/03/20 04:58:48;;;;;;;382.27;74.72;;;;;;;4.54;100.00;101489.75;5056776;28;20088;-76
2024/03/20 05:01:13;;;;;;;555.78;81.32;;;;;;;4.54;100.00;101482.56;5056960;28;20459;-74
2024/03/20 05:03:39;;;;;;;542.00;84.38;;;;;;;4.57;100.00;101487.63;5059007;28;20056;-76
2024/03/20 05:06:04;;;;;;;171.27;62.22;;;;;;;4.55;100.00;101484.25;5059514;28;20033;-75
2024/03/20 05:08:30;;;;;;;504.05;80.95;;;;;;;4.58;100.00;101486.63;5058628;28;20029;-74
2024/03/20 05:10:55;;;;;;;642.65;87.47;;;;;;;4.63;100.00;101492.34;5059657;28;20025;-80
2024/03/20 05:13:20;;;;;;;500.80;83.85;;;;;;;4.60;100.00;101492.66;5058762;28;20033;-78
2024/03/20 05:15:46;;;;;;;534.15;83.22;;;;;;;4.68;100.00;101502.59;5058162;28;20052;-78
2024/03/20 05:18:11;;;;;;;406.58;79.35;;;;;;;4.63;100.00;101486.19;5060236;28;20039;-75
2024/03/20 05:20:36;;;;;;;519.00;84.00;;;;;;;4.51;100.00;101466.88;5060379;28;20090;-81
2024/03/20 05:23:02;;;;;;;308.83;69.65;;;;;;;4.77;100.00;101506.22;5052569;28;20088;-76
2024/03/20 05:25:27;;;;;;;273.65;67.65;;;;;;;4.80;100.00;101512.13;5059034;28;20032;-77
2024/03/20 05:27:53;;;;;;;325.27;73.57;;;;;;;4.75;100.00;101498.38;5058174;28;20028;-76
2024/03/20 05:30:18;;;;;;;376.15;77.55;;;;;;;4.87;100.00;101521.22;5056012;28;20029;-75
2024/03/20 05:32:44;;;;;;;339.90;76.00;;;;;;;4.90;100.00;101528.06;5057077;28;20051;-75
2024/03/20 05:35:09;;;;;;;363.15;73.03;;;;;;;4.93;100.00;101527.78;5041101;28;20046;-75
2024/03/20 05:37:34;;;;;;;449.63;67.45;;;;;;;4.91;100.00;101530.63;5035375;28;20065;-75
2024/03/20 05:40:00;;;;;;;209.65;43.40;;;;;;;4.76;100.00;101500.06;5037184;28;20033;-75
2024/03/20 05:42:25;;;;;;;174.55;25.25;;;;;;;4.88;100.00;101530.06;5034910;28;20030;-75
2024/03/20 05:44:51;;;;;;;158.55;16.30;;;;;;;4.86;100.00;101521.34;5036932;28;20029;-76
2024/03/20 05:47:16;;;;;;;163.18;14.38;;;;;;;4.83;100.00;101524.31;5036624;28;20033;-76
2024/03/20 05:49:45;;;;;;;89.82;9.88;;;;;;;4.69;100.00;101515.78;5035784;28;20140;-75
2024/03/20 05:52:10;;;;;;;118.35;9.35;;;;;;;4.63;100.00;101510.19;5036841;28;20025;-76
2024/03/20 05:54:36;;;;;;;58.95;6.95;;;;;;;4.76;100.00;101524.03;5037212;28;20032;-76
2024/03/20 05:57:02;;;;;;;27.23;5.60;;;;;;;4.72;100.00;101530.66;5037553;28;20397;-76
2024/03/20 05:59:27;;;;;;;22.65;5.10;;;;;;;4.70;100.00;101529.94;5039151;28;20049;-76
2024/03/20 06:01:53;;;;;;;15.82;4.45;;;;;;;4.71;100.00;101543.16;5039993;28;20098;-76
2024/03/20 06:04:18;;;;;;;9.98;3.30;;;;;;;4.72;100.00;101544.81;5037047;28;20025;-75
2024/03/20 06:06:45;;;;;;;12.10;4.97;;;;;;;4.60;100.00;101522.00;5038341;28;20040;-77
2024/03/20 06:09:13;;;;;;;10.50;4.50;;;;;;;4.70;100.00;101540.59;5040168;28;20400;-77
2024/03/20 06:11:39;;;;;;;8.68;3.40;;;;;;;4.56;100.00;101523.22;5038289;28;20029;-76
2024/03/20 06:14:05;;;;;;;9.70;3.60;;;;;;;4.69;100.00;101550.44;5037634;28;20058;-76
2024/03/20 06:16:31;;;;;;;8.43;4.03;;;;;;;4.71;100.00;101543.16;5037642;28;20053;-75
2024/03/20 06:18:57;;;;;;;8.15;4.20;;;;;;;4.76;100.00;101552.53;5037362;28;20025;-76
2024/03/20 06:21:23;;;;;;;14.75;6.25;;;;;;;4.76;100.00;101552.53;5036884;28;20036;-77
2024/03/20 06:23:48;;;;;;;14.43;5.68;;;;;;;4.76;100.00;101552.53;5022088;28;20032;-76
2024/03/20 06:26:13;;;;;;;15.88;6.38;;;;;;;4.62;100.00;101532.50;5038202;28;20038;-76
2024/03/20 06:28:39;;;;;;;11.65;6.28;;;;;;;4.76;100.00;101568.53;5039614;28;20069;-76
2024/03/20 06:31:05;;;;;;;21.63;8.65;;;;;;;4.78;100.00;101561.25;5039171;28;20033;-75
2024/03/20 06:33:30;;;;;;;18.45;9.20;;;;;;;4.66;100.00;101537.38;5039779;28;20030;-75
2024/03/20 06:35:56;;;;;;;30.38;11.35;;;;;;;4.80;100.00;101569.94;5040061;28;20029;-75
2024/03/20 06:38:21;;;;;;;26.10;11.80;;;;;;;4.81;100.00;101561.81;5040649;28;20025;-76
2024/03/20 06:40:47;;;;;;;32.00;12.10;;;;;;;4.81;100.00;101564.47;5039561;28;20385;-77
2024/03/20 06:43:13;;;;;;;30.85;12.70;;;;;;;4.81;100.00;101564.47;5037868;28;20048;-76
2024/03/20 06:45:47;;;;;;;32.65;14.50;;;;;;;4.83;100.00;101564.31;5038636;28;20076;-76
2024/03/20 06:48:15;;;;;;;37.60;14.77;;;;;;;4.83;100.00;101562.47;5040789;28;20392;-77
2024/03/20 06:50:41;;;;;;;42.50;16.33;;;;;;;4.52;100.00;101523.69;5042119;28;20086;-77
2024/03/20 06:53:07;;;;;;;45.55;17.27;;;;;;;4.36;100.00;101492.25;5055913;28;20119;-77
2024/03/20 06:55:34;;;;;;;41.25;15.45;;;;;;;4.87;100.00;101566.56;5061326;28;20025;-75
2024/03/20 06:58:01;;;;;;;45.20;17.45;;;;;;;4.85;100.00;101573.00;5061800;28;20032;-76
2024/03/20 07:00:27;;;;;;;62.00;20.52;;;;;;;4.86;100.00;101580.03;5061774;28;20052;-74
2024/03/20 07:02:55;;;;;;;72.30;20.15;;;;;;;4.86;100.00;101580.03;5061379;28;20021;-74
2024/03/20 07:05:20;;;;;;;72.78;21.40;;;;;;;4.19;100.00;101484.00;5060661;28;20035;-76
2024/03/20 07:07:46;;;;;;;84.72;21.98;;;;;;;4.53;100.00;101552.00;5061767;28;20112;-78
2024/03/20 07:10:11;;;;;;;75.38;21.35;;;;;;;4.78;100.00;101599.41;5062325;28;20610;-77
2024/03/20 07:12:38;;;;;;;72.35;18.67;;;;;;;4.75;100.00;101606.84;5060716;28;20096;-77
2024/03/20 07:15:13;;;;;;;96.70;20.60;;;;;;;4.65;100.00;101602.34;5061604;28;20108;-75
2024/03/20 07:17:39;;;;;;;83.43;20.45;;;;;;;4.64;100.00;101606.03;5061140;28;20029;-75
2024/03/20 07:20:07;;;;;;;76.32;17.20;;;;;;;4.52;100.00;101599.13;5061103;28;20036;-76
2024/03/20 07:22:38;;;;;;;72.30;17.85;;;;;;;4.57;100.00;101618.22;5057395;28;20033;-75
2024/03/20 07:25:07;;;;;;;68.18;17.60;;;;;;;4.52;100.00;101617.78;5059757;28;20029;-76
2024/03/20 07:27:36;;;;;;;44.55;13.30;;;;;;;4.48;100.00;101603.91;5060557;28;20033;-77
2024/03/20 07:30:06;;;;;;;59.92;17.77;;;;;;;4.43;100.00;101613.28;5061744;28;20032;-77
2024/03/20 07:32:32;;;;;;;79.43;17.95;;;;;;;4.41;100.00;101621.44;5064520;28;20020;-76
2024/03/20 07:34:58;;;;;;;82.82;20.42;;;;;;;4.33;100.00;101609.78;5065128;28;20055;-78
2024/03/20 07:37:25;;;;;;;139.55;22.98;;;;;;;4.34;100.00;101630.09;5067204;28;20025;-78
2024/03/20 07:39:50;;;;;;;114.35;23.10;;;;;;;4.29;100.00;101629.69;5063558;28;20055;-78
2024/03/20 07:42:16;;;;;;;131.38;24.02;;;;;;;4.05;100.00;101606.94;5065491;28;20434;-78
2024/03/20 07:44:42;;;;;;;86.53;23.95;;;;;;;4.16;100.00;101628.13;5064202;28;20029;-77
2024/03/20 07:47:08;;;;;;;93.90;26.13;;;;;;;4.19;100.00;101635.84;5064359;28;20029;-76
2024/03/20 07:49:33;;;;;;;84.50;26.38;;;;;;;4.23;100.00;101636.41;5065975;28;20009;-79
2024/03/20 07:51:59;;;;;;;70.60;26.10;;;;;;;4.22;100.00;101638.22;5061870;28;20033;-77
2024/03/20 07:54:24;;;;;;;47.65;21.85;;;;;;;4.16;100.00;101636.09;5063366;28;20033;-77
2024/03/20 07:56:54;;;;;;;41.78;22.00;;;;;;;4.15;100.00;101636.25;5061659;28;20040;-76
2024/03/20 07:59:21;;;;;;;45.05;21.40;;;;;;;4.13;100.00;101639.03;5063650;28;20021;-76
2024/03/20 08:01:47;;;;;;;44.05;21.30;;;;;;;4.14;100.00;101645.22;5064336;28;20080;-77
2024/03/20 08:04:12;;;;;;;30.88;17.45;;;;;;;4.12;100.00;101645.34;5063680;28;20056;-77
2024/03/20 08:06:39;;;;;;;32.92;18.65;;;;;;;4.05;100.00;101636.22;5062326;28;20104;-78
2024/03/20 08:09:05;;;;;;;26.55;17.75;;;;;;;4.06;100.00;101645.06;5064957;28;20036;-77
2024/03/20 08:11:31;;;;;;;26.20;16.60;;;;;;;4.03;100.00;101650.66;5064213;28;20035;-77
2024/03/20 08:13:56;;;;;;;22.02;15.35;;;;;;;3.99;100.00;101645.59;5064345;28;20029;-77
2024/03/20 08:16:22;;;;;;;23.25;14.57;;;;;;;4.02;100.00;101647.16;5068198;28;20032;-77
2024/03/20 08:18:48;;;;;;;25.65;17.35;;;;;;;4.04;100.00;101649.66;5069122;28;20039;-76
2024/03/20 08:21:15;;;;;;;26.70;17.73;;;;;;;4.06;100.00;101656.56;5064797;28;20557;-77
2024/03/20 08:23:41;;;;;;;24.45;17.30;;;;;;;4.04;100.00;101649.66;5068987;28;20032;-76
2024/03/20 08:26:07;;;;;;;22.33;16.45;;;;;;;4.10;100.00;101657.13;5069648;28;20029;-76
2024/03/20 08:28:32;;;;;;;19.15;14.43;;;;;;;4.10;100.00;101652.63;5071145;28;20514;-77
2024/03/20 08:30:58;;;;;;;24.00;14.55;;;;;;;4.12;100.00;101663.16;5068762;28;20082;-76
2024/03/20 08:33:23;;;;;;;19.13;14.00;;;;;;;4.10;100.00;101663.28;5070606;28;20039;-76
2024/03/20 08:35:58;;;;;;;19.85;13.13;;;;;;;3.98;100.00;101648.41;5069881;28;20444;-76
2024/03/20 08:38:24;;;;;;;;;;;;;;;4.09;100.00;101660.78;5070820;28;20033;-76
2024/03/20 08:40:49;;;;;;;18.42;13.93;;;;;;;4.13;100.00;101663.00;5070581;28;19909;-76
2024/03/20 08:43:15;;;;;;;19.27;12.80;;;;;;;4.10;100.00;101681.94;5070758;28;20033;-77
2024/03/20 08:45:41;;;;;;;22.73;14.13;;;;;;;4.10;100.00;101673.94;5069855;28;20043;-75
2024/03/20 08:48:07;;;;;;;15.10;11.52;;;;;;;4.01;100.00;101653.47;5068595;28;20033;-76
2024/03/20 08:50:34;;;;;;;13.90;12.05;;;;;;;3.62;100.00;101600.09;5068474;28;20395;-76
2024/03/20 08:53:01;;;;;;;17.60;12.50;;;;;;;4.07;100.00;101676.03;5067276;28;20029;-75
2024/03/20 08:55:27;;;;;;;20.10;13.63;;;;;;;4.08;100.00;101681.25;5066722;28;20048;-76
2024/03/20 08:57:52;;;;;;;16.08;12.85;;;;;;;4.12;100.00;101681.81;5066844;28;20665;-76
2024/03/20 09:00:19;;;;;;;18.55;13.38;;;;;;;4.05;100.00;101670.03;5067056;28;20058;-76
2024/03/20 09:02:45;;;;;;;18.58;13.90;;;;;;;3.62;100.00;101618.72;5067039;28;20035;-76
2024/03/20 09:05:11;;;;;;;24.08;15.48;;;;;;;4.00;100.00;101678.38;5067377;28;20076;-76
2024/03/20 09:07:36;;;;;;;20.63;12.77;;;;;;;4.01;100.00;101682.75;5069581;28;20108;-77
2024/03/20 09:10:02;;;;;;;15.48;11.00;;;;;;;4.01;100.00;101685.44;5053733;28;20032;-75
2024/03/20 09:12:28;;;;;;;16.15;10.80;;;;;;;4.04;100.00;101679.84;5064073;28;20040;-75
2024/03/20 09:14:53;;;;;;;12.98;10.93;;;;;;;4.06;100.00;101687.66;5065750;28;20558;-75
2024/03/20 09:17:20;;;;;;;16.38;11.70;;;;;;;4.09;100.00;101692.72;5062320;28;20021;-76
2024/03/20 09:19:46;;;;;;;12.38;9.98;;;;;;;4.04;100.00;101685.16;5062883;28;20033;-74
2024/03/20 09:22:12;;;;;;;18.40;11.23;;;;;;;3.97;100.00;101679.53;5065277;28;20116;-76
2024/03/20 09:24:37;;;;;;;12.23;8.65;;;;;;;4.01;100.00;101693.41;5062840;28;20081;-76
2024/03/20 09:27:02;;;;;;;11.48;10.27;;;;;;;4.03;100.00;101687.94;5046495;28;20040;-78
2024/03/20 09:29:28;;;;;;;14.88;10.88;;;;;;;4.00;100.00;101689.88;5061675;28;20039;-75
2024/03/20 09:31:54;;;;;;;17.75;11.20;;;;;;;3.76;100.00;101655.59;5062604;28;20032;-75
2024/03/20 09:34:19;;;;;;;15.90;11.45;;;;;;;4.00;100.00;101687.22;5062759;28;20043;-76
2024/03/20 09:36:45;;;;;;;13.43;10.40;;;;;;;4.05;100.00;101686.00;5066210;28;20064;-77
2024/03/20 09:39:10;;;;;;;15.95;12.65;;;;;;;3.74;100.00;101644.25;5064546;28;20033;-75
2024/03/20 09:41:37;;;;;;;16.98;12.20;;;;;;;4.11;100.00;101701.44;5054251;28;20033;-77
2024/03/20 09:44:05;;;;;;;11.27;8.45;;;;;;;4.03;100.00;101686.13;5052171;28;20005;-78
2024/03/20 09:46:30;;;;;;;14.02;8.70;;;;;;;4.04;100.00;101698.47;5053283;28;20025;-77
2024/03/20 09:48:56;;;;;;;12.82;8.70;;;;;;;4.09;100.00;101698.91;5054122;28;20093;-76
2024/03/20 09:51:21;;;;;;;11.43;8.88;;;;;;;3.96;100.00;101676.97;5051599;28;20033;-76
2024/03/20 09:53:51;;;;;;;10.63;9.20;;;;;;;4.11;100.00;101706.78;5051443;28;20025;-78
2024/03/20 09:56:20;;;;;;;12.95;9.57;;;;;;;4.02;100.00;101692.44;5047632;28;20027;-76
2024/03/20 09:58:46;;;;;;;15.18;12.02;;;;;;;3.99;100.00;101682.88;5044174;28;20048;-76
2024/03/20 10:01:14;;;;;;;12.68;10.95;;;;;;;4.06;100.00;101704.50;5046294;28;20045;-77
2024/03/20 10:03:40;;;;;;;16.67;12.70;;;;;;;4.07;100.00;101692.84;5050641;28;20013;-76
2024/03/20 10:06:08;;;;;;;17.52;12.32;;;;;;;4.14;100.00;101701.13;5052185;28;20059;-75
2024/03/20 10:08:34;;;;;;;11.15;8.68;;;;;;;4.22;100.00;101690.66;5050076;28;20026;-76
2024/03/20 10:11:00;;;;;;;9.85;6.53;;;;;;;4.24;100.00;101691.38;5048980;28;20116;-75
2024/03/20 10:13:25;;;;;;;9.25;5.60;;;;;;;4.33;100.00;101695.03;5046110;28;20053;-75
2024/03/20 10:16:17;;;;;;;7.32;4.18;;;;;;;4.32;100.00;101688.03;5044757;28;20053;-76
2024/03/20 10:18:44;;;;;;;6.25;4.57;;;;;;;4.42;100.00;101699.56;5041273;28;20041;-77
2024/03/20 10:21:10;;;;;;;5.93;4.70;;;;;;;4.51;100.00;101693.41;5045174;28;20136;-76
2024/03/20 10:23:41;;;;;;;8.77;4.90;;;;;;;4.61;100.00;101696.94;5046355;28;20046;-76
2024/03/20 10:26:10;;;;;;;6.00;3.80;;;;;;;4.66;100.00;101704.50;5046559;28;20037;-76
2024/03/20 10:28:38;;;;;;;6.43;3.67;;;;;;;4.61;100.00;101690.75;5045470;28;20048;-77
2024/03/20 10:31:06;;;;;;;4.05;2.63;;;;;;;4.69;100.00;101701.56;5026963;28;20033;-77
2024/03/20 10:33:34;;;;;;;4.45;3.38;;;;;;;4.81;100.00;101697.78;5026620;28;20040;-77
2024/03/20 10:36:00;;;;;;;6.18;3.20;;;;;;;4.85;100.00;101685.84;5044655;28;20025;-77
2024/03/20 10:38:29;;;;;;;4.30;2.72;;;;;;;4.91;100.00;101701.28;5043809;28;20332;-77
2024/03/20 10:40:56;;;;;;;4.88;3.10;;;;;;;4.99;100.00;101705.91;5042229;28;20072;-77
2024/03/20 10:43:24;;;;;;;6.07;2.42;;;;;;;5.02;100.00;101697.63;5044151;28;20056;-75
2024/03/20 10:45:50;;;;;;;3.40;2.17;;;;;;;4.84;100.00;101670.00;5043730;28;20029;-76
2024/03/20 10:48:18;;;;;;;3.30;2.13;;;;;;;5.01;100.00;101697.78;5044858;28;20036;-76
2024/03/20 10:50:47;;;;;;;3.88;2.10;;;;;;;4.90;100.00;101688.94;5042936;28;20084;-76
2024/03/20 10:53:14;;;;;;;4.40;2.30;;;;;;;4.98;100.00;101698.91;5044194;28;20111;-76
2024/03/20 10:55:41;;;;;;;2.78;2.20;;;;;;;4.99;100.00;101697.91;5046284;28;20594;-76
2024/03/20 10:58:08;;;;;;;2.40;2.00;;;;;;;4.95;100.00;101699.19;5046061;28;20029;-77
2024/03/20 11:00:34;;;;;;;3.13;2.15;;;;;;;4.83;100.00;101690.47;5045569;28;20045;-76
2024/03/20 11:03:41;;;;;;;5.13;2.40;;;;;;;4.85;100.00;101699.19;5042625;28;20018;-75
2024/03/20 11:09:08;;;;;;;2.72;1.15;;;;;;;4.56;100.00;101671.66;5039415;28;20030;-77